Red Valley, Arizona
Current Conditions -  °F | °C
As of 11:53 PM on Wednesday 22 Oct 2014 (Local Time) from KCEZ Reporting Station
Clear Clear  
Wind Chill: 39°   Ceiling: Unl
Heat Index: 43°   Visibility: 10mi
Dew Point: 35°   Wind: 6mph
Humidity: 74%   Direction: 70°ENE
Pressure: 30.25"   Gusts: NA
Location:  36.91°N, 109.1°W
Report Text: KCEZ 230553Z AUTO 07005KT 10SM CLR 06/02 A3025 RMK AO2 SLP197 T00610017 10189 20044 53008
Loading
Personal Weather Stations






























Interactive Weather Map
Tropical Storm Tracking
New forecast layout! Learn more

10-Day Weather Forecast

Advertisements
Track Severe Weather on mobile